Aérodrome :
LOGIN :

S'inscrire | Disclaimer

   EN    FR    IT 

 










Légende :    VFR   VFR Marginal   IFR   IFR Intensif   IFR Très Intensif
Visi : 
Plafond : 
>= 8 km
>= 3000ft
5 à 8 km
1000 à 3000 ft
1500m à 5 km
500 à 1000 ft
800 à 1500m
200 à 500 ft
< 800m
< 200 ft
Symboles :   Orages  Brouillard  Fortes neiges  Fortes précipitations  Vent > 20 kt
SIGMETs :   Divers  Orages  Givrage  Turbulence  Onde Orograph.  Cendres Volcan.






- Altitude de l'aérodrome : 33 ft
- Code IATA : PLQ


EYPA - Palanga

DERNIER METAR :
  • 270150Z AUTO 24010KT 140V310 9999 -UP OVC007/// 02/01 Q0988

METARs EXPIRÉS :
  • 270120Z AUTO 23011G23KT 190V270 9999 -UP OVC007/// 02/01 Q0988
  • 270050Z AUTO 22012KT 190V250 9999 -UP BKN011/// 03/01 Q0988
  • 270020Z AUTO 22011G21KT 160V270 9999 -UP BKN012/// 02/01 Q0989
  • 262350Z AUTO 23010KT 190V280 9999 -UP BKN015/// BKN051/// 02/00 Q0989
  • 262320Z AUTO 23011G21KT 200V270 9999 BKN015/// 03/M01 Q0989

TAF TAF EYPA
Valide du 27 à 00h jusqu'au 28 à 00h UTC


262300Z 2700/2724 24012G22KT 6000 BKN015
TEMPO 2700/2715 27022G32KT 3000 SHRASN BKN005 BKN018CB
TEMPO 2715/2721 SHRASN BKN018CB



MET'MAP, la Météo Aéronautique d'un coup d'oeil ! - Copyright ORBIFLY Décembre 2007 - Disclaimer

ORBIFLY MET'MAP TEAM :

Programmation & Développement : Alexandra Zaïnal
Sur une idée originale de : Baudouin d'Aumeries
Assistance à la programmation : Marc-Olivier Méhu
Soutien technique & logistique : Manuel Goepfert

Contact : metmap@orbifly.com




SOURCES & CREDITS :

   NOAA